sensor_id;sensor_type;location;lat;lon;timestamp;P1;durP1;ratioP1;P2;durP2;ratioP2
3873;SDS011;1952;50.872;6.692;2023-02-28T00:30:05;2.77;;;2.57;;
3873;SDS011;1952;50.872;6.692;2023-02-28T00:32:34;2.83;;;2.40;;
3873;SDS011;1952;50.872;6.692;2023-02-28T00:35:03;6.87;;;2.97;;
3873;SDS011;1952;50.872;6.692;2023-02-28T00:37:36;2.87;;;2.60;;
3873;SDS011;1952;50.872;6.692;2023-02-28T00:40:10;3.10;;;2.80;;
3873;SDS011;1952;50.872;6.692;2023-02-28T00:42:38;3.20;;;2.63;;
3873;SDS011;1952;50.872;6.692;2023-02-28T00:45:08;3.73;;;2.50;;
3873;SDS011;1952;50.872;6.692;2023-02-28T00:47:37;3.00;;;2.80;;
3873;SDS011;1952;50.872;6.692;2023-02-28T00:50:06;3.57;;;2.33;;
3873;SDS011;1952;50.872;6.692;2023-02-28T00:52:34;2.90;;;2.60;;
3873;SDS011;1952;50.872;6.692;2023-02-28T00:55:03;4.80;;;3.10;;
3873;SDS011;1952;50.872;6.692;2023-02-28T00:57:31;2.50;;;2.30;;
3873;SDS011;1952;50.872;6.692;2023-02-28T01:00:05;3.57;;;2.77;;
3873;SDS011;1952;50.872;6.692;2023-02-28T01:02:35;3.23;;;3.00;;
3873;SDS011;1952;50.872;6.692;2023-02-28T01:05:08;3.43;;;2.47;;
3873;SDS011;1952;50.872;6.692;2023-02-28T01:07:36;5.60;;;2.80;;
3873;SDS011;1952;50.872;6.692;2023-02-28T01:10:05;3.30;;;2.63;;
3873;SDS011;1952;50.872;6.692;2023-02-28T01:12:39;2.77;;;2.53;;
3873;SDS011;1952;50.872;6.692;2023-02-28T01:15:09;4.13;;;2.97;;
3873;SDS011;1952;50.872;6.692;2023-02-28T01:17:40;2.53;;;2.20;;
3873;SDS011;1952;50.872;6.692;2023-02-28T01:20:09;3.20;;;2.93;;
3873;SDS011;1952;50.872;6.692;2023-02-28T01:22:42;4.07;;;2.80;;
3873;SDS011;1952;50.872;6.692;2023-02-28T01:25:10;2.47;;;2.27;;
3873;SDS011;1952;50.872;6.692;2023-02-28T01:27:39;3.77;;;2.50;;
3873;SDS011;1952;50.872;6.692;2023-02-28T01:30:08;5.63;;;2.50;;
3873;SDS011;1952;50.872;6.692;2023-02-28T01:32:36;2.40;;;2.20;;
3873;SDS011;1952;50.872;6.692;2023-02-28T01:35:10;3.63;;;2.77;;
3873;SDS011;1952;50.872;6.692;2023-02-28T01:37:43;2.37;;;2.20;;
3873;SDS011;1952;50.872;6.692;2023-02-28T01:40:17;2.63;;;2.43;;
3873;SDS011;1952;50.872;6.692;2023-02-28T01:42:45;5.10;;;3.03;;
3873;SDS011;1952;50.872;6.692;2023-02-28T01:45:20;3.33;;;2.30;;
3873;SDS011;1952;50.872;6.692;2023-02-28T01:47:55;2.40;;;2.30;;
3873;SDS011;1952;50.872;6.692;2023-02-28T01:50:28;2.87;;;2.50;;
3873;SDS011;1952;50.872;6.692;2023-02-28T01:52:58;3.37;;;3.07;;
3873;SDS011;1952;50.872;6.692;2023-02-28T01:55:27;6.40;;;3.30;;
3873;SDS011;1952;50.872;6.692;2023-02-28T01:57:57;2.40;;;2.20;;
3873;SDS011;1952;50.872;6.692;2023-02-28T02:00:26;2.73;;;2.50;;
3873;SDS011;1952;50.872;6.692;2023-02-28T02:02:56;2.70;;;2.50;;
3873;SDS011;1952;50.872;6.692;2023-02-28T02:05:27;1.87;;;1.77;;
3873;SDS011;1952;50.872;6.692;2023-02-28T02:07:58;2.30;;;2.10;;
3873;SDS011;1952;50.872;6.692;2023-02-28T02:10:30;2.57;;;2.10;;
3873;SDS011;1952;50.872;6.692;2023-02-28T02:13:05;3.77;;;2.33;;
3873;SDS011;1952;50.872;6.692;2023-02-28T02:15:38;2.67;;;2.50;;
3873;SDS011;1952;50.872;6.692;2023-02-28T02:18:09;2.70;;;2.50;;
3873;SDS011;1952;50.872;6.692;2023-02-28T02:23:41;3.17;;;2.87;;
3873;SDS011;1952;50.872;6.692;2023-02-28T02:29:19;2.23;;;2.13;;
3873;SDS011;1952;50.872;6.692;2023-02-28T02:34:39;3.37;;;2.67;;
3873;SDS011;1952;50.872;6.692;2023-02-28T02:37:21;3.23;;;2.93;;
3873;SDS011;1952;50.872;6.692;2023-02-28T02:39:52;3.20;;;2.50;;
3873;SDS011;1952;50.872;6.692;2023-02-28T02:42:23;3.97;;;2.70;;
3873;SDS011;1952;50.872;6.692;2023-02-28T02:45:00;3.63;;;2.40;;
3873;SDS011;1952;50.872;6.692;2023-02-28T02:47:37;3.00;;;2.70;;
3873;SDS011;1952;50.872;6.692;2023-02-28T02:50:08;2.83;;;2.53;;
3873;SDS011;1952;50.872;6.692;2023-02-28T02:52:44;2.73;;;2.20;;
3873;SDS011;1952;50.872;6.692;2023-02-28T02:55:19;2.67;;;2.47;;
3873;SDS011;1952;50.872;6.692;2023-02-28T02:57:53;3.10;;;2.80;;
3873;SDS011;1952;50.872;6.692;2023-02-28T03:00:26;3.23;;;2.73;;
3873;SDS011;1952;50.872;6.692;2023-02-28T03:02:56;2.97;;;2.40;;
3873;SDS011;1952;50.872;6.692;2023-02-28T03:05:27;3.80;;;3.10;;
3873;SDS011;1952;50.872;6.692;2023-02-28T03:07:56;3.40;;;2.33;;
3873;SDS011;1952;50.872;6.692;2023-02-28T03:10:32;2.60;;;2.40;;
3873;SDS011;1952;50.872;6.692;2023-02-28T03:13:10;3.10;;;2.00;;
3873;SDS011;1952;50.872;6.692;2023-02-28T03:15:42;5.83;;;2.47;;
3873;SDS011;1952;50.872;6.692;2023-02-28T03:18:14;3.37;;;3.17;;
3873;SDS011;1952;50.872;6.692;2023-02-28T03:20:54;2.90;;;2.70;;
3873;SDS011;1952;50.872;6.692;2023-02-28T03:23:27;4.70;;;3.60;;
3873;SDS011;1952;50.872;6.692;2023-02-28T03:25:58;2.57;;;2.37;;
3873;SDS011;1952;50.872;6.692;2023-02-28T03:28:30;2.90;;;2.70;;
3873;SDS011;1952;50.872;6.692;2023-02-28T03:31:09;4.90;;;2.50;;
3873;SDS011;1952;50.872;6.692;2023-02-28T03:33:42;2.53;;;2.30;;
3873;SDS011;1952;50.872;6.692;2023-02-28T03:36:28;2.77;;;2.57;;
3873;SDS011;1952;50.872;6.692;2023-02-28T03:38:58;6.20;;;2.50;;
3873;SDS011;1952;50.872;6.692;2023-02-28T03:41:31;2.87;;;2.60;;
3873;SDS011;1952;50.872;6.692;2023-02-28T03:44:06;4.70;;;3.07;;
3873;SDS011;1952;50.872;6.692;2023-02-28T03:46:42;2.70;;;2.50;;
3873;SDS011;1952;50.872;6.692;2023-02-28T03:49:18;3.00;;;2.50;;
3873;SDS011;1952;50.872;6.692;2023-02-28T03:51:49;2.70;;;2.37;;
3873;SDS011;1952;50.872;6.692;2023-02-28T03:54:21;1.93;;;1.83;;
3873;SDS011;1952;50.872;6.692;2023-02-28T03:56:56;5.33;;;2.63;;
3873;SDS011;1952;50.872;6.692;2023-02-28T03:59:27;4.20;;;2.70;;
3873;SDS011;1952;50.872;6.692;2023-02-28T04:02:01;4.07;;;2.97;;
3873;SDS011;1952;50.872;6.692;2023-02-28T04:04:34;3.70;;;3.03;;
3873;SDS011;1952;50.872;6.692;2023-02-28T04:07:05;2.03;;;1.93;;
3873;SDS011;1952;50.872;6.692;2023-02-28T04:09:38;2.33;;;2.10;;
3873;SDS011;1952;50.872;6.692;2023-02-28T04:12:06;2.90;;;2.70;;
3873;SDS011;1952;50.872;6.692;2023-02-28T04:14:35;5.40;;;2.47;;
3873;SDS011;1952;50.872;6.692;2023-02-28T04:17:03;3.23;;;2.93;;
3873;SDS011;1952;50.872;6.692;2023-02-28T04:19:36;2.93;;;2.60;;
3873;SDS011;1952;50.872;6.692;2023-02-28T04:22:10;3.33;;;3.00;;
3873;SDS011;1952;50.872;6.692;2023-02-28T04:24:39;3.30;;;3.00;;
3873;SDS011;1952;50.872;6.692;2023-02-28T04:27:08;2.30;;;2.20;;
3873;SDS011;1952;50.872;6.692;2023-02-28T04:29:42;7.10;;;3.13;;
3873;SDS011;1952;50.872;6.692;2023-02-28T04:32:10;2.80;;;2.60;;
3873;SDS011;1952;50.872;6.692;2023-02-28T04:34:39;6.80;;;2.30;;
3873;SDS011;1952;50.872;6.692;2023-02-28T04:37:07;2.30;;;2.20;;
3873;SDS011;1952;50.872;6.692;2023-02-28T04:39:41;2.87;;;2.67;;
3873;SDS011;1952;50.872;6.692;2023-02-28T04:42:09;3.27;;;2.50;;
3873;SDS011;1952;50.872;6.692;2023-02-28T04:44:38;3.80;;;2.80;;
3873;SDS011;1952;50.872;6.692;2023-02-28T04:47:07;3.43;;;2.60;;
3873;SDS011;1952;50.872;6.692;2023-02-28T04:49:40;2.73;;;2.33;;
3873;SDS011;1952;50.872;6.692;2023-02-28T04:52:09;3.43;;;3.13;;
3873;SDS011;1952;50.872;6.692;2023-02-28T04:54:37;3.73;;;3.43;;
3873;SDS011;1952;50.872;6.692;2023-02-28T04:57:12;5.13;;;3.50;;
3873;SDS011;1952;50.872;6.692;2023-02-28T04:59:40;5.00;;;3.67;;
3873;SDS011;1952;50.872;6.692;2023-02-28T05:02:08;4.67;;;3.20;;
3873;SDS011;1952;50.872;6.692;2023-02-28T05:04:37;3.73;;;3.43;;
3873;SDS011;1952;50.872;6.692;2023-02-28T05:07:05;7.07;;;3.67;;
3873;SDS011;1952;50.872;6.692;2023-02-28T05:09:33;2.80;;;2.60;;
3873;SDS011;1952;50.872;6.692;2023-02-28T05:12:05;4.17;;;2.87;;
3873;SDS011;1952;50.872;6.692;2023-02-28T05:14:34;5.57;;;3.13;;
3873;SDS011;1952;50.872;6.692;2023-02-28T05:17:08;3.03;;;2.77;;
3873;SDS011;1952;50.872;6.692;2023-02-28T05:19:36;2.67;;;2.47;;
3873;SDS011;1952;50.872;6.692;2023-02-28T05:22:11;2.93;;;2.73;;
3873;SDS011;1952;50.872;6.692;2023-02-28T05:24:41;3.67;;;2.80;;
3873;SDS011;1952;50.872;6.692;2023-02-28T05:27:09;2.80;;;2.57;;
3873;SDS011;1952;50.872;6.692;2023-02-28T05:29:44;3.13;;;2.87;;
3873;SDS011;1952;50.872;6.692;2023-02-28T05:32:13;3.70;;;2.87;;
3873;SDS011;1952;50.872;6.692;2023-02-28T05:34:42;4.73;;;2.93;;
3873;SDS011;1952;50.872;6.692;2023-02-28T05:37:11;3.90;;;3.60;;
3873;SDS011;1952;50.872;6.692;2023-02-28T05:39:40;4.30;;;3.47;;
3873;SDS011;1952;50.872;6.692;2023-02-28T05:42:08;3.27;;;3.03;;
3873;SDS011;1952;50.872;6.692;2023-02-28T05:44:36;4.83;;;3.20;;
3873;SDS011;1952;50.872;6.692;2023-02-28T05:47:07;4.77;;;3.20;;
3873;SDS011;1952;50.872;6.692;2023-02-28T05:49:36;4.00;;;3.20;;
3873;SDS011;1952;50.872;6.692;2023-02-28T05:52:04;3.70;;;3.40;;
3873;SDS011;1952;50.872;6.692;2023-02-28T06:32:04;4.37;;;2.93;;
3873;SDS011;1952;50.872;6.692;2023-02-28T06:34:32;4.60;;;3.10;;
3873;SDS011;1952;50.872;6.692;2023-02-28T06:37:01;6.83;;;5.30;;
3873;SDS011;1952;50.872;6.692;2023-02-28T06:39:31;9.63;;;8.50;;
3873;SDS011;1952;50.872;6.692;2023-02-28T06:42:00;6.20;;;5.60;;
3873;SDS011;1952;50.872;6.692;2023-02-28T06:44:28;6.70;;;4.50;;
3873;SDS011;1952;50.872;6.692;2023-02-28T06:47:07;4.00;;;3.47;;
3873;SDS011;1952;50.872;6.692;2023-02-28T06:49:36;3.50;;;3.23;;
3873;SDS011;1952;50.872;6.692;2023-02-28T06:52:05;3.60;;;2.40;;
3873;SDS011;1952;50.872;6.692;2023-02-28T06:54:36;3.57;;;2.80;;
3873;SDS011;1952;50.872;6.692;2023-02-28T06:57:07;3.53;;;3.00;;
3873;SDS011;1952;50.872;6.692;2023-02-28T06:59:41;4.07;;;3.67;;
3873;SDS011;1952;50.872;6.692;2023-02-28T07:02:14;2.90;;;2.70;;
3873;SDS011;1952;50.872;6.692;2023-02-28T07:04:42;3.73;;;3.43;;
3873;SDS011;1952;50.872;6.692;2023-02-28T07:07:16;6.23;;;3.70;;
3873;SDS011;1952;50.872;6.692;2023-02-28T07:09:49;3.20;;;2.90;;
3873;SDS011;1952;50.872;6.692;2023-02-28T07:12:18;4.40;;;4.10;;
3873;SDS011;1952;50.872;6.692;2023-02-28T07:14:52;4.03;;;3.50;;
3873;SDS011;1952;50.872;6.692;2023-02-28T07:17:22;3.67;;;3.00;;
3873;SDS011;1952;50.872;6.692;2023-02-28T07:19:56;4.00;;;3.70;;
3873;SDS011;1952;50.872;6.692;2023-02-28T07:22:24;3.30;;;3.00;;
3873;SDS011;1952;50.872;6.692;2023-02-28T07:24:54;2.73;;;2.53;;
3873;SDS011;1952;50.872;6.692;2023-02-28T07:27:23;2.93;;;2.73;;
3873;SDS011;1952;50.872;6.692;2023-02-28T07:29:56;3.33;;;3.13;;
3873;SDS011;1952;50.872;6.692;2023-02-28T07:32:29;3.47;;;3.20;;
3873;SDS011;1952;50.872;6.692;2023-02-28T07:34:57;3.50;;;3.30;;
3873;SDS011;1952;50.872;6.692;2023-02-28T07:37:30;4.10;;;2.43;;
3873;SDS011;1952;50.872;6.692;2023-02-28T07:40:02;3.63;;;3.33;;
3873;SDS011;1952;50.872;6.692;2023-02-28T07:42:35;2.97;;;2.50;;
3873;SDS011;1952;50.872;6.692;2023-02-28T07:45:04;3.30;;;3.10;;
3873;SDS011;1952;50.872;6.692;2023-02-28T07:47:41;3.50;;;3.30;;
3873;SDS011;1952;50.872;6.692;2023-02-28T07:50:16;3.50;;;3.20;;
3873;SDS011;1952;50.872;6.692;2023-02-28T07:52:45;2.70;;;2.50;;
3873;SDS011;1952;50.872;6.692;2023-02-28T07:55:13;3.87;;;3.47;;
3873;SDS011;1952;50.872;6.692;2023-02-28T07:57:57;3.30;;;3.00;;
3873;SDS011;1952;50.872;6.692;2023-02-28T08:00:29;3.90;;;3.60;;
3873;SDS011;1952;50.872;6.692;2023-02-28T08:02:59;3.70;;;3.40;;
3873;SDS011;1952;50.872;6.692;2023-02-28T08:05:28;3.33;;;3.13;;
3873;SDS011;1952;50.872;6.692;2023-02-28T08:07:57;3.43;;;3.20;;
3873;SDS011;1952;50.872;6.692;2023-02-28T08:10:30;4.30;;;3.73;;
3873;SDS011;1952;50.872;6.692;2023-02-28T08:12:58;4.13;;;3.73;;
3873;SDS011;1952;50.872;6.692;2023-02-28T08:15:28;3.60;;;3.30;;
3873;SDS011;1952;50.872;6.692;2023-02-28T08:17:56;3.80;;;3.50;;
3873;SDS011;1952;50.872;6.692;2023-02-28T08:20:26;3.27;;;3.00;;
3873;SDS011;1952;50.872;6.692;2023-02-28T08:22:55;4.47;;;3.40;;
3873;SDS011;1952;50.872;6.692;2023-02-28T08:25:23;2.97;;;2.77;;
3873;SDS011;1952;50.872;6.692;2023-02-28T08:27:54;3.40;;;3.10;;
3873;SDS011;1952;50.872;6.692;2023-02-28T08:30:28;4.07;;;3.77;;
3873;SDS011;1952;50.872;6.692;2023-02-28T08:32:56;3.47;;;3.20;;
3873;SDS011;1952;50.872;6.692;2023-02-28T08:35:31;3.10;;;2.90;;
3873;SDS011;1952;50.872;6.692;2023-02-28T08:38:00;3.30;;;3.10;;
3873;SDS011;1952;50.872;6.692;2023-02-28T08:40:28;4.10;;;3.73;;
3873;SDS011;1952;50.872;6.692;2023-02-28T08:42:58;3.40;;;2.90;;
3873;SDS011;1952;50.872;6.692;2023-02-28T08:45:41;3.23;;;2.83;;
3873;SDS011;1952;50.872;6.692;2023-02-28T08:48:10;3.00;;;2.80;;
3873;SDS011;1952;50.872;6.692;2023-02-28T08:50:53;2.90;;;2.70;;
3873;SDS011;1952;50.872;6.692;2023-02-28T08:53:32;2.87;;;2.67;;
3873;SDS011;1952;50.872;6.692;2023-02-28T08:56:03;3.27;;;2.97;;
3873;SDS011;1952;50.872;6.692;2023-02-28T08:58:34;3.00;;;2.80;;
3873;SDS011;1952;50.872;6.692;2023-02-28T09:01:07;2.40;;;2.30;;
3873;SDS011;1952;50.872;6.692;2023-02-28T09:03:44;2.77;;;2.67;;
3873;SDS011;1952;50.872;6.692;2023-02-28T09:06:16;2.47;;;2.27;;
3873;SDS011;1952;50.872;6.692;2023-02-28T09:09:03;4.93;;;3.00;;
3873;SDS011;1952;50.872;6.692;2023-02-28T09:11:38;2.80;;;2.60;;
3873;SDS011;1952;50.872;6.692;2023-02-28T09:14:08;2.90;;;2.70;;
3873;SDS011;1952;50.872;6.692;2023-02-28T09:16:37;2.80;;;2.60;;
3873;SDS011;1952;50.872;6.692;2023-02-28T09:19:11;3.17;;;2.87;;
3873;SDS011;1952;50.872;6.692;2023-02-28T09:21:43;3.83;;;2.50;;
3873;SDS011;1952;50.872;6.692;2023-02-28T09:24:11;2.70;;;2.50;;
3873;SDS011;1952;50.872;6.692;2023-02-28T09:26:41;2.27;;;2.17;;
3873;SDS011;1952;50.872;6.692;2023-02-28T09:29:28;2.60;;;2.40;;
3873;SDS011;1952;50.872;6.692;2023-02-28T09:32:01;2.60;;;2.40;;
3873;SDS011;1952;50.872;6.692;2023-02-28T09:34:32;1.90;;;1.80;;
3873;SDS011;1952;50.872;6.692;2023-02-28T09:37:05;2.63;;;2.43;;
3873;SDS011;1952;50.872;6.692;2023-02-28T09:39:40;2.83;;;2.63;;
3873;SDS011;1952;50.872;6.692;2023-02-28T09:42:21;2.73;;;2.53;;
3873;SDS011;1952;50.872;6.692;2023-02-28T09:44:52;2.80;;;2.60;;
3873;SDS011;1952;50.872;6.692;2023-02-28T09:47:25;2.40;;;2.20;;
3873;SDS011;1952;50.872;6.692;2023-02-28T09:49:55;4.47;;;2.30;;
3873;SDS011;1952;50.872;6.692;2023-02-28T09:52:32;2.63;;;2.43;;
3873;SDS011;1952;50.872;6.692;2023-02-28T09:55:15;2.50;;;2.30;;
3873;SDS011;1952;50.872;6.692;2023-02-28T09:57:47;3.90;;;2.73;;
3873;SDS011;1952;50.872;6.692;2023-02-28T10:00:18;2.60;;;2.50;;
3873;SDS011;1952;50.872;6.692;2023-02-28T10:02:56;2.63;;;2.43;;
3873;SDS011;1952;50.872;6.692;2023-02-28T10:05:31;2.40;;;2.20;;
3873;SDS011;1952;50.872;6.692;2023-02-28T10:08:05;2.97;;;2.77;;
3873;SDS011;1952;50.872;6.692;2023-02-28T10:10:37;3.00;;;2.07;;
3873;SDS011;1952;50.872;6.692;2023-02-28T10:13:14;2.90;;;2.70;;
3873;SDS011;1952;50.872;6.692;2023-02-28T10:15:44;2.73;;;2.53;;
3873;SDS011;1952;50.872;6.692;2023-02-28T10:18:21;2.77;;;2.17;;
3873;SDS011;1952;50.872;6.692;2023-02-28T10:20:51;2.57;;;2.40;;
3873;SDS011;1952;50.872;6.692;2023-02-28T10:23:38;3.50;;;2.30;;
3873;SDS011;1952;50.872;6.692;2023-02-28T10:26:08;3.60;;;2.70;;
3873;SDS011;1952;50.872;6.692;2023-02-28T10:28:45;3.63;;;3.43;;
3873;SDS011;1952;50.872;6.692;2023-02-28T10:31:17;2.70;;;2.50;;
3873;SDS011;1952;50.872;6.692;2023-02-28T10:33:47;4.00;;;2.97;;
3873;SDS011;1952;50.872;6.692;2023-02-28T10:36:16;2.77;;;2.57;;
3873;SDS011;1952;50.872;6.692;2023-02-28T10:41:43;2.53;;;2.37;;
3873;SDS011;1952;50.872;6.692;2023-02-28T10:44:14;3.00;;;2.70;;
3873;SDS011;1952;50.872;6.692;2023-02-28T10:46:43;3.67;;;3.37;;
3873;SDS011;1952;50.872;6.692;2023-02-28T10:49:17;2.90;;;2.70;;
3873;SDS011;1952;50.872;6.692;2023-02-28T10:51:54;3.17;;;2.97;;
3873;SDS011;1952;50.872;6.692;2023-02-28T10:54:24;3.00;;;2.80;;
3873;SDS011;1952;50.872;6.692;2023-02-28T10:57:07;3.00;;;2.77;;
3873;SDS011;1952;50.872;6.692;2023-02-28T10:59:42;2.80;;;2.60;;
3873;SDS011;1952;50.872;6.692;2023-02-28T11:02:30;3.17;;;2.87;;
3873;SDS011;1952;50.872;6.692;2023-02-28T11:05:02;3.60;;;3.30;;
3873;SDS011;1952;50.872;6.692;2023-02-28T11:07:54;2.70;;;2.50;;
3873;SDS011;1952;50.872;6.692;2023-02-28T11:10:24;3.10;;;2.80;;
3873;SDS011;1952;50.872;6.692;2023-02-28T11:12:56;3.10;;;2.90;;
3873;SDS011;1952;50.872;6.692;2023-02-28T11:15:33;2.87;;;2.60;;
3873;SDS011;1952;50.872;6.692;2023-02-28T11:18:14;3.50;;;3.20;;
3873;SDS011;1952;50.872;6.692;2023-02-28T11:20:53;2.90;;;2.70;;
3873;SDS011;1952;50.872;6.692;2023-02-28T11:23:23;3.10;;;2.80;;
3873;SDS011;1952;50.872;6.692;2023-02-28T11:26:14;3.20;;;3.00;;
3873;SDS011;1952;50.872;6.692;2023-02-28T11:28:48;3.73;;;2.70;;
3873;SDS011;1952;50.872;6.692;2023-02-28T11:31:35;4.20;;;3.20;;
3873;SDS011;1952;50.872;6.692;2023-02-28T11:34:32;3.70;;;3.40;;
3873;SDS011;1952;50.872;6.692;2023-02-28T11:37:05;4.00;;;3.73;;
3873;SDS011;1952;50.872;6.692;2023-02-28T11:39:35;3.10;;;2.90;;
3873;SDS011;1952;50.872;6.692;2023-02-28T11:42:27;3.30;;;3.03;;
3873;SDS011;1952;50.872;6.692;2023-02-28T11:45:14;3.20;;;3.00;;
3873;SDS011;1952;50.872;6.692;2023-02-28T11:47:56;3.60;;;3.30;;
3873;SDS011;1952;50.872;6.692;2023-02-28T11:50:40;3.50;;;3.23;;
3873;SDS011;1952;50.872;6.692;2023-02-28T11:53:17;2.97;;;2.67;;
3873;SDS011;1952;50.872;6.692;2023-02-28T12:33:39;4.13;;;3.83;;
3873;SDS011;1952;50.872;6.692;2023-02-28T12:36:13;3.37;;;3.07;;
3873;SDS011;1952;50.872;6.692;2023-02-28T12:39:00;5.27;;;4.83;;
3873;SDS011;1952;50.872;6.692;2023-02-28T12:41:29;3.53;;;3.23;;
3873;SDS011;1952;50.872;6.692;2023-02-28T12:44:00;3.80;;;3.50;;
3873;SDS011;1952;50.872;6.692;2023-02-28T12:46:33;3.33;;;3.13;;
3873;SDS011;1952;50.872;6.692;2023-02-28T12:49:10;4.40;;;3.60;;
3873;SDS011;1952;50.872;6.692;2023-02-28T12:51:44;4.73;;;3.70;;
3873;SDS011;1952;50.872;6.692;2023-02-28T12:54:24;3.77;;;3.00;;
3873;SDS011;1952;50.872;6.692;2023-02-28T12:56:56;3.90;;;3.60;;
3873;SDS011;1952;50.872;6.692;2023-02-28T12:59:32;4.90;;;2.93;;
3873;SDS011;1952;50.872;6.692;2023-02-28T13:05:07;4.63;;;4.17;;
3873;SDS011;1952;50.872;6.692;2023-02-28T13:10:36;5.17;;;4.67;;
3873;SDS011;1952;50.872;6.692;2023-02-28T13:13:11;4.33;;;3.20;;
3873;SDS011;1952;50.872;6.692;2023-02-28T13:15:44;3.77;;;3.47;;
3873;SDS011;1952;50.872;6.692;2023-02-28T13:18:31;3.80;;;3.50;;
3873;SDS011;1952;50.872;6.692;2023-02-28T13:21:02;3.50;;;3.20;;
3873;SDS011;1952;50.872;6.692;2023-02-28T13:29:21;4.40;;;;;
3873;SDS011;1952;50.872;6.692;2023-02-28T13:34:46;4.33;;;3.47;;
3873;SDS011;1952;50.872;6.692;2023-02-28T13:37:37;3.87;;;3.37;;
3873;SDS011;1952;50.872;6.692;2023-02-28T13:40:27;3.73;;;3.40;;
3873;SDS011;1952;50.872;6.692;2023-02-28T13:42:55;3.10;;;2.90;;
3873;SDS011;1952;50.872;6.692;2023-02-28T13:45:26;3.50;;;3.30;;
3873;SDS011;1952;50.872;6.692;2023-02-28T13:47:58;4.03;;;3.73;;
3873;SDS011;1952;50.872;6.692;2023-02-28T13:50:34;3.53;;;3.33;;
3873;SDS011;1952;50.872;6.692;2023-02-28T13:53:24;3.97;;;3.67;;
3873;SDS011;1952;50.872;6.692;2023-02-28T13:56:19;4.17;;;3.87;;
3873;SDS011;1952;50.872;6.692;2023-02-28T13:59:06;4.33;;;4.03;;
3873;SDS011;1952;50.872;6.692;2023-02-28T14:01:52;4.37;;;3.97;;
3873;SDS011;1952;50.872;6.692;2023-02-28T14:04:37;3.13;;;2.93;;
3873;SDS011;1952;50.872;6.692;2023-02-28T14:07:15;3.93;;;3.63;;
3873;SDS011;1952;50.872;6.692;2023-02-28T14:09:48;4.43;;;4.10;;
3873;SDS011;1952;50.872;6.692;2023-02-28T14:15:25;4.07;;;3.40;;
3873;SDS011;1952;50.872;6.692;2023-02-28T14:17:55;3.63;;;3.33;;
3873;SDS011;1952;50.872;6.692;2023-02-28T14:20:31;3.80;;;3.33;;
3873;SDS011;1952;50.872;6.692;2023-02-28T14:23:09;4.00;;;3.80;;
3873;SDS011;1952;50.872;6.692;2023-02-28T14:31:41;4.23;;;3.70;;
3873;SDS011;1952;50.872;6.692;2023-02-28T14:34:27;4.37;;;4.07;;
3873;SDS011;1952;50.872;6.692;2023-02-28T14:37:09;4.00;;;3.70;;
3873;SDS011;1952;50.872;6.692;2023-02-28T14:39:41;3.90;;;3.50;;
3873;SDS011;1952;50.872;6.692;2023-02-28T14:42:57;4.27;;;3.90;;
3873;SDS011;1952;50.872;6.692;2023-02-28T14:45:34;5.30;;;3.90;;
3873;SDS011;1952;50.872;6.692;2023-02-28T14:48:09;3.93;;;3.63;;
3873;SDS011;1952;50.872;6.692;2023-02-28T14:50:38;4.67;;;4.27;;
3873;SDS011;1952;50.872;6.692;2023-02-28T14:53:10;4.53;;;4.13;;
3873;SDS011;1952;50.872;6.692;2023-02-28T14:55:43;4.30;;;3.90;;
3873;SDS011;1952;50.872;6.692;2023-02-28T14:58:18;4.47;;;4.07;;
3873;SDS011;1952;50.872;6.692;2023-02-28T15:00:49;4.37;;;3.97;;
3873;SDS011;1952;50.872;6.692;2023-02-28T15:03:20;4.20;;;3.90;;
3873;SDS011;1952;50.872;6.692;2023-02-28T15:05:52;5.00;;;4.53;;
3873;SDS011;1952;50.872;6.692;2023-02-28T15:08:31;4.10;;;3.70;;
3873;SDS011;1952;50.872;6.692;2023-02-28T15:11:17;3.57;;;3.27;;
3873;SDS011;1952;50.872;6.692;2023-02-28T15:13:54;5.60;;;4.53;;
3873;SDS011;1952;50.872;6.692;2023-02-28T15:16:24;6.87;;;3.67;;
3873;SDS011;1952;50.872;6.692;2023-02-28T15:19:04;4.47;;;4.03;;
3873;SDS011;1952;50.872;6.692;2023-02-28T15:21:40;4.20;;;3.90;;
3873;SDS011;1952;50.872;6.692;2023-02-28T15:24:17;4.20;;;3.80;;
3873;SDS011;1952;50.872;6.692;2023-02-28T15:26:58;3.60;;;3.40;;
3873;SDS011;1952;50.872;6.692;2023-02-28T15:29:56;4.20;;;3.90;;
3873;SDS011;1952;50.872;6.692;2023-02-28T15:32:31;3.60;;;3.30;;
3873;SDS011;1952;50.872;6.692;2023-02-28T15:35:19;5.10;;;4.80;;
3873;SDS011;1952;50.872;6.692;2023-02-28T15:37:56;4.97;;;4.60;;
3873;SDS011;1952;50.872;6.692;2023-02-28T15:40:26;4.00;;;3.70;;
3873;SDS011;1952;50.872;6.692;2023-02-28T15:45:45;3.60;;;3.30;;
3873;SDS011;1952;50.872;6.692;2023-02-28T15:48:20;3.43;;;2.90;;
3873;SDS011;1952;50.872;6.692;2023-02-28T15:50:57;4.33;;;4.00;;
3873;SDS011;1952;50.872;6.692;2023-02-28T15:53:30;4.60;;;4.20;;
3873;SDS011;1952;50.872;6.692;2023-02-28T15:56:01;5.10;;;4.20;;
3873;SDS011;1952;50.872;6.692;2023-02-28T15:58:30;4.30;;;3.90;;
3873;SDS011;1952;50.872;6.692;2023-02-28T16:01:06;4.17;;;3.73;;
3873;SDS011;1952;50.872;6.692;2023-02-28T16:03:40;3.70;;;3.40;;
3873;SDS011;1952;50.872;6.692;2023-02-28T16:08:53;5.20;;;4.30;;
3873;SDS011;1952;50.872;6.692;2023-02-28T16:11:23;4.70;;;4.30;;
3873;SDS011;1952;50.872;6.692;2023-02-28T16:13:52;3.77;;;3.57;;
3873;SDS011;1952;50.872;6.692;2023-02-28T16:16:22;4.70;;;4.13;;
3873;SDS011;1952;50.872;6.692;2023-02-28T16:18:51;3.97;;;3.67;;
3873;SDS011;1952;50.872;6.692;2023-02-28T16:21:27;4.60;;;4.20;;
3873;SDS011;1952;50.872;6.692;2023-02-28T16:23:57;4.07;;;3.53;;
3873;SDS011;1952;50.872;6.692;2023-02-28T16:26:29;4.77;;;4.40;;
3873;SDS011;1952;50.872;6.692;2023-02-28T16:29:05;4.20;;;3.80;;
3873;SDS011;1952;50.872;6.692;2023-02-28T16:31:39;3.80;;;3.50;;
3873;SDS011;1952;50.872;6.692;2023-02-28T16:34:08;4.80;;;4.40;;
3873;SDS011;1952;50.872;6.692;2023-02-28T16:36:42;3.87;;;3.57;;
3873;SDS011;1952;50.872;6.692;2023-02-28T16:39:15;4.23;;;3.90;;
3873;SDS011;1952;50.872;6.692;2023-02-28T16:41:48;6.43;;;5.10;;
3873;SDS011;1952;50.872;6.692;2023-02-28T16:44:20;4.10;;;3.80;;
3873;SDS011;1952;50.872;6.692;2023-02-28T16:46:49;4.00;;;3.70;;
3873;SDS011;1952;50.872;6.692;2023-02-28T16:49:18;5.67;;;4.20;;
3873;SDS011;1952;50.872;6.692;2023-02-28T16:51:52;6.40;;;4.40;;
3873;SDS011;1952;50.872;6.692;2023-02-28T16:54:22;7.90;;;4.30;;
3873;SDS011;1952;50.872;6.692;2023-02-28T16:56:50;4.20;;;3.90;;
3873;SDS011;1952;50.872;6.692;2023-02-28T16:59:21;4.33;;;3.70;;
3873;SDS011;1952;50.872;6.692;2023-02-28T17:02:07;4.77;;;4.37;;
3873;SDS011;1952;50.872;6.692;2023-02-28T17:04:43;4.37;;;4.07;;
3873;SDS011;1952;50.872;6.692;2023-02-28T17:07:18;4.50;;;4.00;;
3873;SDS011;1952;50.872;6.692;2023-02-28T17:09:52;4.60;;;4.23;;
3873;SDS011;1952;50.872;6.692;2023-02-28T17:12:20;5.20;;;4.20;;
3873;SDS011;1952;50.872;6.692;2023-02-28T17:14:49;4.30;;;3.90;;
3873;SDS011;1952;50.872;6.692;2023-02-28T17:17:17;5.30;;;4.80;;
3873;SDS011;1952;50.872;6.692;2023-02-28T17:19:52;4.63;;;3.90;;
3873;SDS011;1952;50.872;6.692;2023-02-28T17:22:20;4.20;;;3.83;;
3873;SDS011;1952;50.872;6.692;2023-02-28T17:24:48;3.83;;;3.60;;
3873;SDS011;1952;50.872;6.692;2023-02-28T17:27:18;5.63;;;4.40;;
3873;SDS011;1952;50.872;6.692;2023-02-28T17:29:52;4.90;;;4.40;;
3873;SDS011;1952;50.872;6.692;2023-02-28T17:32:21;4.80;;;4.40;;
3873;SDS011;1952;50.872;6.692;2023-02-28T17:34:52;5.57;;;4.97;;
3873;SDS011;1952;50.872;6.692;2023-02-28T17:37:22;4.07;;;3.60;;
3873;SDS011;1952;50.872;6.692;2023-02-28T17:39:52;5.23;;;4.40;;
3873;SDS011;1952;50.872;6.692;2023-02-28T17:42:22;4.27;;;3.87;;
3873;SDS011;1952;50.872;6.692;2023-02-28T17:44:51;6.20;;;5.60;;
3873;SDS011;1952;50.872;6.692;2023-02-28T17:47:19;5.70;;;5.10;;
3873;SDS011;1952;50.872;6.692;2023-02-28T17:49:48;5.97;;;5.47;;
3873;SDS011;1952;50.872;6.692;2023-02-28T17:52:22;7.27;;;6.57;;
3873;SDS011;1952;50.872;6.692;2023-02-28T18:35:26;4.53;;;4.20;;
3873;SDS011;1952;50.872;6.692;2023-02-28T18:38:16;6.83;;;5.80;;
3873;SDS011;1952;50.872;6.692;2023-02-28T18:40:56;6.03;;;5.53;;
3873;SDS011;1952;50.872;6.692;2023-02-28T18:43:35;5.70;;;5.10;;
3873;SDS011;1952;50.872;6.692;2023-02-28T18:46:09;5.20;;;4.70;;
3873;SDS011;1952;50.872;6.692;2023-02-28T18:48:41;6.00;;;5.50;;
3873;SDS011;1952;50.872;6.692;2023-02-28T18:51:13;5.47;;;4.97;;
3873;SDS011;1952;50.872;6.692;2023-02-28T18:53:50;5.13;;;4.67;;
3873;SDS011;1952;50.872;6.692;2023-02-28T18:56:22;5.90;;;5.40;;
3873;SDS011;1952;50.872;6.692;2023-02-28T18:58:56;6.80;;;4.87;;